SBOSBO PXO / LPPS
Speedbird OnlineSpeedbird Online PXO / LPPS

Porto Santo Airport
23:50 18°C

Location Porto Santo, Portugal
Latitude: 33.0733985901
Longitude: -16.3500003815
Local Time 23:50 on 20 May 2024
UTC +1 hours (Europe/Lisbon)
Currency £1 equals EUR 1.17
METAR LPPS 202230Z 03006KT 360V060 9999 FEW015 BKN030 18/11 Q1022
TAF TAF LPPS 201700Z 2018/2124 36008KT 9999 SCT015 TEMPO 2018/2124 FEW015 BKN030 BECMG 2106/2109 02010KT
Weather As Of 20 May 2024 23:50
Description Broken clouds
Wind 11 km/h from North-East (30°)
Cloud Cover 75%
Precipitation Rain: none, Snow: none
Sunrise 07:02
Sunset 21:01
Web Airport Website | Wikipedia
Codes IATA: PXO
ICAO: LPPS
Altitude 104 Meter / 341 Feet
Distance 2,445 KM / 1,519 Miles
from London.
Runways
RunwayLength (m)Surface
010UNK
183006Concrete
190UNK
363006Concrete
Radio
TypeDescriptionFrequency
GCAGCA123.3
TWRTWR120.05
Live ATC



Support Speedbird Online

© 2017-2024 Speedbird Online